sensor_id;sensor_type;location;lat;lon;timestamp;temperature;humidity
14119;DHT22;7138;49.246;9.100;2023-06-05T00:01:13;15.90;83.00
14119;DHT22;7138;49.246;9.100;2023-06-05T00:03:40;15.80;83.50
14119;DHT22;7138;49.246;9.100;2023-06-05T00:06:09;15.70;83.80
14119;DHT22;7138;49.246;9.100;2023-06-05T00:08:35;15.70;84.00
14119;DHT22;7138;49.246;9.100;2023-06-05T00:11:01;15.50;84.40
14119;DHT22;7138;49.246;9.100;2023-06-05T00:13:27;15.50;84.70
14119;DHT22;7138;49.246;9.100;2023-06-05T00:15:53;15.40;85.40
14119;DHT22;7138;49.246;9.100;2023-06-05T00:18:19;15.50;84.80
14119;DHT22;7138;49.246;9.100;2023-06-05T00:20:46;15.50;85.50
14119;DHT22;7138;49.246;9.100;2023-06-05T00:23:13;15.40;84.90
14119;DHT22;7138;49.246;9.100;2023-06-05T00:25:39;15.30;85.60
14119;DHT22;7138;49.246;9.100;2023-06-05T00:28:05;15.20;85.70
14119;DHT22;7138;49.246;9.100;2023-06-05T00:30:31;15.20;85.30
14119;DHT22;7138;49.246;9.100;2023-06-05T00:32:57;15.10;85.40
14119;DHT22;7138;49.246;9.100;2023-06-05T00:35:22;15.10;85.70
14119;DHT22;7138;49.246;9.100;2023-06-05T00:37:50;15.10;85.60
14119;DHT22;7138;49.246;9.100;2023-06-05T00:40:15;15.00;85.90
14119;DHT22;7138;49.246;9.100;2023-06-05T00:42:41;14.90;87.10
14119;DHT22;7138;49.246;9.100;2023-06-05T00:45:08;14.80;86.40
14119;DHT22;7138;49.246;9.100;2023-06-05T00:47:34;15.00;85.80
14119;DHT22;7138;49.246;9.100;2023-06-05T00:50:01;14.90;86.10
14119;DHT22;7138;49.246;9.100;2023-06-05T00:52:28;14.80;86.80
14119;DHT22;7138;49.246;9.100;2023-06-05T00:54:55;14.90;86.10
14119;DHT22;7138;49.246;9.100;2023-06-05T00:57:21;14.70;86.60
14119;DHT22;7138;49.246;9.100;2023-06-05T00:59:50;14.60;86.80
14119;DHT22;7138;49.246;9.100;2023-06-05T01:02:16;14.70;87.10
14119;DHT22;7138;49.246;9.100;2023-06-05T01:04:42;14.60;86.90
14119;DHT22;7138;49.246;9.100;2023-06-05T01:07:09;14.40;87.00
14119;DHT22;7138;49.246;9.100;2023-06-05T01:09:36;14.40;88.20
14119;DHT22;7138;49.246;9.100;2023-06-05T01:12:08;14.40;87.60
14119;DHT22;7138;49.246;9.100;2023-06-05T01:14:41;14.30;88.30
14119;DHT22;7138;49.246;9.100;2023-06-05T01:17:12;14.20;88.00
14119;DHT22;7138;49.246;9.100;2023-06-05T01:19:40;14.10;88.50
14119;DHT22;7138;49.246;9.100;2023-06-05T01:22:06;14.10;89.00
14119;DHT22;7138;49.246;9.100;2023-06-05T01:24:33;14.00;88.70
14119;DHT22;7138;49.246;9.100;2023-06-05T01:27:04;14.00;89.10
14119;DHT22;7138;49.246;9.100;2023-06-05T01:29:41;13.90;89.10
14119;DHT22;7138;49.246;9.100;2023-06-05T01:32:22;13.90;88.80
14119;DHT22;7138;49.246;9.100;2023-06-05T01:34:55;14.00;89.20
14119;DHT22;7138;49.246;9.100;2023-06-05T01:37:22;14.00;88.80
14119;DHT22;7138;49.246;9.100;2023-06-05T01:39:53;13.90;89.40
14119;DHT22;7138;49.246;9.100;2023-06-05T01:42:22;13.80;89.80
14119;DHT22;7138;49.246;9.100;2023-06-05T01:44:50;13.80;89.90
14119;DHT22;7138;49.246;9.100;2023-06-05T01:47:17;13.70;90.20
14119;DHT22;7138;49.246;9.100;2023-06-05T01:49:43;13.80;89.50
14119;DHT22;7138;49.246;9.100;2023-06-05T01:52:09;13.70;90.30
14119;DHT22;7138;49.246;9.100;2023-06-05T01:54:35;13.60;90.10
14119;DHT22;7138;49.246;9.100;2023-06-05T01:57:02;13.50;90.10
14119;DHT22;7138;49.246;9.100;2023-06-05T01:59:29;13.50;90.20
14119;DHT22;7138;49.246;9.100;2023-06-05T02:01:55;13.50;90.40
14119;DHT22;7138;49.246;9.100;2023-06-05T02:04:21;13.60;90.60
14119;DHT22;7138;49.246;9.100;2023-06-05T02:06:47;13.50;90.80
14119;DHT22;7138;49.246;9.100;2023-06-05T02:09:14;13.40;90.80
14119;DHT22;7138;49.246;9.100;2023-06-05T02:11:40;13.40;91.20
14119;DHT22;7138;49.246;9.100;2023-06-05T02:14:12;13.30;91.50
14119;DHT22;7138;49.246;9.100;2023-06-05T02:16:39;13.10;92.50
14119;DHT22;7138;49.246;9.100;2023-06-05T02:19:05;13.00;92.20
14119;DHT22;7138;49.246;9.100;2023-06-05T02:21:32;13.00;92.60
14119;DHT22;7138;49.246;9.100;2023-06-05T02:23:59;12.90;91.80
14119;DHT22;7138;49.246;9.100;2023-06-05T02:26:25;12.90;91.60
14119;DHT22;7138;49.246;9.100;2023-06-05T02:28:51;12.90;91.60
14119;DHT22;7138;49.246;9.100;2023-06-05T02:31:21;12.90;91.40
14119;DHT22;7138;49.246;9.100;2023-06-05T02:33:50;13.00;91.50
14119;DHT22;7138;49.246;9.100;2023-06-05T02:36:17;13.00;91.50
14119;DHT22;7138;49.246;9.100;2023-06-05T02:38:43;13.00;91.00
14119;DHT22;7138;49.246;9.100;2023-06-05T02:41:10;13.10;91.20
14119;DHT22;7138;49.246;9.100;2023-06-05T02:43:35;13.00;91.00
14119;DHT22;7138;49.246;9.100;2023-06-05T02:46:01;13.00;91.10
14119;DHT22;7138;49.246;9.100;2023-06-05T02:48:29;13.00;91.20
14119;DHT22;7138;49.246;9.100;2023-06-05T02:50:55;12.90;91.20
14119;DHT22;7138;49.246;9.100;2023-06-05T02:53:20;12.90;91.30
14119;DHT22;7138;49.246;9.100;2023-06-05T02:55:46;12.80;91.50
14119;DHT22;7138;49.246;9.100;2023-06-05T02:58:13;12.90;91.10
14119;DHT22;7138;49.246;9.100;2023-06-05T03:00:41;12.80;91.40
14119;DHT22;7138;49.246;9.100;2023-06-05T03:03:07;12.80;91.30
14119;DHT22;7138;49.246;9.100;2023-06-05T03:05:34;12.90;91.20
14119;DHT22;7138;49.246;9.100;2023-06-05T03:08:01;12.80;91.10
14119;DHT22;7138;49.246;9.100;2023-06-05T03:10:26;12.80;91.10
14119;DHT22;7138;49.246;9.100;2023-06-05T03:12:53;12.90;90.90
14119;DHT22;7138;49.246;9.100;2023-06-05T03:15:19;12.90;91.00
14119;DHT22;7138;49.246;9.100;2023-06-05T03:17:45;12.80;91.30
14119;DHT22;7138;49.246;9.100;2023-06-05T03:20:11;12.80;91.10
14119;DHT22;7138;49.246;9.100;2023-06-05T03:22:39;12.70;91.30
14119;DHT22;7138;49.246;9.100;2023-06-05T03:25:06;12.70;91.10
14119;DHT22;7138;49.246;9.100;2023-06-05T03:27:33;12.70;91.40
14119;DHT22;7138;49.246;9.100;2023-06-05T03:29:59;12.80;91.00
14119;DHT22;7138;49.246;9.100;2023-06-05T03:32:26;12.80;91.50
14119;DHT22;7138;49.246;9.100;2023-06-05T03:34:52;12.70;91.20
14119;DHT22;7138;49.246;9.100;2023-06-05T03:37:18;12.70;91.00
14119;DHT22;7138;49.246;9.100;2023-06-05T03:39:45;12.70;91.20
14119;DHT22;7138;49.246;9.100;2023-06-05T03:42:11;12.60;91.20
14119;DHT22;7138;49.246;9.100;2023-06-05T03:44:37;12.60;91.40
14119;DHT22;7138;49.246;9.100;2023-06-05T03:47:03;12.60;91.50
14119;DHT22;7138;49.246;9.100;2023-06-05T03:49:29;12.70;91.10
14119;DHT22;7138;49.246;9.100;2023-06-05T03:51:55;12.90;91.00
14119;DHT22;7138;49.246;9.100;2023-06-05T03:54:26;13.00;90.80
14119;DHT22;7138;49.246;9.100;2023-06-05T03:56:54;13.20;90.30
14119;DHT22;7138;49.246;9.100;2023-06-05T03:59:21;13.30;90.30
14119;DHT22;7138;49.246;9.100;2023-06-05T04:01:48;13.20;90.70
14119;DHT22;7138;49.246;9.100;2023-06-05T04:04:14;13.10;90.80
14119;DHT22;7138;49.246;9.100;2023-06-05T04:06:40;13.10;90.80
14119;DHT22;7138;49.246;9.100;2023-06-05T04:09:06;13.20;90.50
14119;DHT22;7138;49.246;9.100;2023-06-05T04:11:37;13.40;90.30
14119;DHT22;7138;49.246;9.100;2023-06-05T04:14:05;13.30;90.20
14119;DHT22;7138;49.246;9.100;2023-06-05T04:16:31;13.50;90.70
14119;DHT22;7138;49.246;9.100;2023-06-05T04:18:59;13.50;90.40
14119;DHT22;7138;49.246;9.100;2023-06-05T04:21:25;13.50;90.20
14119;DHT22;7138;49.246;9.100;2023-06-05T04:23:51;13.60;90.10
14119;DHT22;7138;49.246;9.100;2023-06-05T04:26:17;13.60;90.30
14119;DHT22;7138;49.246;9.100;2023-06-05T04:28:44;13.60;91.20
14119;DHT22;7138;49.246;9.100;2023-06-05T04:31:12;13.60;90.50
14119;DHT22;7138;49.246;9.100;2023-06-05T04:33:37;13.70;90.20
14119;DHT22;7138;49.246;9.100;2023-06-05T04:36:03;13.80;90.10
14119;DHT22;7138;49.246;9.100;2023-06-05T04:38:30;13.90;90.20
14119;DHT22;7138;49.246;9.100;2023-06-05T04:40:56;14.00;90.20
14119;DHT22;7138;49.246;9.100;2023-06-05T04:43:22;14.10;89.30
14119;DHT22;7138;49.246;9.100;2023-06-05T04:45:49;14.10;90.20
14119;DHT22;7138;49.246;9.100;2023-06-05T04:48:16;14.10;90.00
14119;DHT22;7138;49.246;9.100;2023-06-05T04:50:42;14.20;89.90
14119;DHT22;7138;49.246;9.100;2023-06-05T04:53:07;14.30;89.20
14119;DHT22;7138;49.246;9.100;2023-06-05T04:55:33;14.40;89.70
14119;DHT22;7138;49.246;9.100;2023-06-05T04:57:59;14.50;89.00
14119;DHT22;7138;49.246;9.100;2023-06-05T05:00:26;14.50;88.60
14119;DHT22;7138;49.246;9.100;2023-06-05T05:02:52;14.60;88.80
14119;DHT22;7138;49.246;9.100;2023-06-05T05:05:20;15.20;89.10
14119;DHT22;7138;49.246;9.100;2023-06-05T05:07:46;16.50;87.40
14119;DHT22;7138;49.246;9.100;2023-06-05T05:10:13;17.10;86.00
14119;DHT22;7138;49.246;9.100;2023-06-05T05:12:40;17.90;84.10
14119;DHT22;7138;49.246;9.100;2023-06-05T05:15:06;18.60;83.40
14119;DHT22;7138;49.246;9.100;2023-06-05T05:17:33;18.70;82.00
14119;DHT22;7138;49.246;9.100;2023-06-05T05:19:59;18.70;80.60
14119;DHT22;7138;49.246;9.100;2023-06-05T05:22:26;19.70;82.90
14119;DHT22;7138;49.246;9.100;2023-06-05T05:24:52;20.00;80.20
14119;DHT22;7138;49.246;9.100;2023-06-05T05:27:18;20.80;81.00
14119;DHT22;7138;49.246;9.100;2023-06-05T05:29:44;21.00;82.40
14119;DHT22;7138;49.246;9.100;2023-06-05T05:32:10;20.50;79.20
14119;DHT22;7138;49.246;9.100;2023-06-05T05:34:36;21.20;79.40
14119;DHT22;7138;49.246;9.100;2023-06-05T05:37:03;20.90;78.00
14119;DHT22;7138;49.246;9.100;2023-06-05T05:39:30;20.40;77.80
14119;DHT22;7138;49.246;9.100;2023-06-05T05:41:56;20.70;78.30
14119;DHT22;7138;49.246;9.100;2023-06-05T05:44:22;20.30;76.30
14119;DHT22;7138;49.246;9.100;2023-06-05T05:46:48;20.20;76.50
14119;DHT22;7138;49.246;9.100;2023-06-05T05:49:14;21.20;80.70
14119;DHT22;7138;49.246;9.100;2023-06-05T05:51:40;21.30;77.50
14119;DHT22;7138;49.246;9.100;2023-06-05T05:54:05;21.10;76.50
14119;DHT22;7138;49.246;9.100;2023-06-05T05:56:33;21.10;77.30
14119;DHT22;7138;49.246;9.100;2023-06-05T05:59:01;22.30;79.60
14119;DHT22;7138;49.246;9.100;2023-06-05T06:01:27;21.70;76.20
14119;DHT22;7138;49.246;9.100;2023-06-05T06:03:53;21.00;75.30
14119;DHT22;7138;49.246;9.100;2023-06-05T06:06:20;20.80;74.20
14119;DHT22;7138;49.246;9.100;2023-06-05T06:08:46;20.90;75.50
14119;DHT22;7138;49.246;9.100;2023-06-05T06:11:12;21.50;77.20
14119;DHT22;7138;49.246;9.100;2023-06-05T06:13:39;20.50;74.90
14119;DHT22;7138;49.246;9.100;2023-06-05T06:16:05;21.40;79.00
14119;DHT22;7138;49.246;9.100;2023-06-05T06:18:31;22.30;77.40
14119;DHT22;7138;49.246;9.100;2023-06-05T06:20:57;22.60;76.50
14119;DHT22;7138;49.246;9.100;2023-06-05T06:23:23;22.20;75.10
14119;DHT22;7138;49.246;9.100;2023-06-05T06:25:52;22.00;75.30
14119;DHT22;7138;49.246;9.100;2023-06-05T06:28:18;22.80;78.40
14119;DHT22;7138;49.246;9.100;2023-06-05T06:30:46;22.30;74.90
14119;DHT22;7138;49.246;9.100;2023-06-05T06:33:12;23.10;75.90
14119;DHT22;7138;49.246;9.100;2023-06-05T06:35:38;23.70;77.00
14119;DHT22;7138;49.246;9.100;2023-06-05T06:38:04;23.20;73.40
14119;DHT22;7138;49.246;9.100;2023-06-05T06:40:30;23.10;75.90
14119;DHT22;7138;49.246;9.100;2023-06-05T06:42:56;23.00;75.00
14119;DHT22;7138;49.246;9.100;2023-06-05T06:45:22;23.00;75.10
14119;DHT22;7138;49.246;9.100;2023-06-05T06:47:49;23.20;76.90
14119;DHT22;7138;49.246;9.100;2023-06-05T06:50:15;23.30;73.80
14119;DHT22;7138;49.246;9.100;2023-06-05T06:52:41;22.70;76.90
14119;DHT22;7138;49.246;9.100;2023-06-05T06:55:08;22.80;75.30
14119;DHT22;7138;49.246;9.100;2023-06-05T06:57:34;23.40;79.90
14119;DHT22;7138;49.246;9.100;2023-06-05T07:00:00;23.00;76.10
14119;DHT22;7138;49.246;9.100;2023-06-05T07:02:26;22.90;83.90
14119;DHT22;7138;49.246;9.100;2023-06-05T07:04:53;22.30;80.30
14119;DHT22;7138;49.246;9.100;2023-06-05T07:07:20;22.30;76.90
14119;DHT22;7138;49.246;9.100;2023-06-05T07:09:50;22.20;76.00
14119;DHT22;7138;49.246;9.100;2023-06-05T07:12:17;21.20;75.90
14119;DHT22;7138;49.246;9.100;2023-06-05T07:14:45;22.00;81.20
14119;DHT22;7138;49.246;9.100;2023-06-05T07:17:11;22.80;80.80
14119;DHT22;7138;49.246;9.100;2023-06-05T07:19:37;22.60;77.50
14119;DHT22;7138;49.246;9.100;2023-06-05T07:22:05;22.20;77.50
14119;DHT22;7138;49.246;9.100;2023-06-05T07:24:32;22.30;77.50
14119;DHT22;7138;49.246;9.100;2023-06-05T07:27:02;22.80;81.90
14119;DHT22;7138;49.246;9.100;2023-06-05T07:29:29;22.40;76.50
14119;DHT22;7138;49.246;9.100;2023-06-05T07:31:56;22.20;78.60
14119;DHT22;7138;49.246;9.100;2023-06-05T07:34:24;22.30;78.40
14119;DHT22;7138;49.246;9.100;2023-06-05T07:36:51;22.40;79.50
14119;DHT22;7138;49.246;9.100;2023-06-05T07:39:19;22.60;79.30
14119;DHT22;7138;49.246;9.100;2023-06-05T07:41:46;22.90;78.20
14119;DHT22;7138;49.246;9.100;2023-06-05T07:44:15;22.60;79.60
14119;DHT22;7138;49.246;9.100;2023-06-05T07:46:42;22.30;78.00
14119;DHT22;7138;49.246;9.100;2023-06-05T07:49:09;22.60;80.60
14119;DHT22;7138;49.246;9.100;2023-06-05T07:51:36;21.80;78.60
14119;DHT22;7138;49.246;9.100;2023-06-05T07:54:02;22.20;79.00
14119;DHT22;7138;49.246;9.100;2023-06-05T07:56:30;22.50;79.40
14119;DHT22;7138;49.246;9.100;2023-06-05T07:58:57;21.80;78.00
14119;DHT22;7138;49.246;9.100;2023-06-05T08:01:23;22.70;82.10
14119;DHT22;7138;49.246;9.100;2023-06-05T08:03:49;22.30;79.30
14119;DHT22;7138;49.246;9.100;2023-06-05T08:06:15;22.30;80.50
14119;DHT22;7138;49.246;9.100;2023-06-05T08:08:41;22.30;83.70
14119;DHT22;7138;49.246;9.100;2023-06-05T08:11:08;23.00;80.90
14119;DHT22;7138;49.246;9.100;2023-06-05T08:13:36;23.00;81.00
14119;DHT22;7138;49.246;9.100;2023-06-05T08:16:02;23.10;81.60
14119;DHT22;7138;49.246;9.100;2023-06-05T08:18:28;23.00;80.40
14119;DHT22;7138;49.246;9.100;2023-06-05T08:20:54;23.00;80.90
14119;DHT22;7138;49.246;9.100;2023-06-05T08:23:20;23.50;84.90
14119;DHT22;7138;49.246;9.100;2023-06-05T08:25:46;24.20;89.80
14119;DHT22;7138;49.246;9.100;2023-06-05T08:28:13;24.20;85.50
14119;DHT22;7138;49.246;9.100;2023-06-05T08:30:41;24.80;86.60
14119;DHT22;7138;49.246;9.100;2023-06-05T08:33:06;24.80;82.60
14119;DHT22;7138;49.246;9.100;2023-06-05T08:35:33;24.40;86.90
14119;DHT22;7138;49.246;9.100;2023-06-05T08:37:59;24.00;87.10
14119;DHT22;7138;49.246;9.100;2023-06-05T08:40:27;24.40;88.10
14119;DHT22;7138;49.246;9.100;2023-06-05T08:42:54;24.20;83.60
14119;DHT22;7138;49.246;9.100;2023-06-05T08:45:20;24.40;83.00
14119;DHT22;7138;49.246;9.100;2023-06-05T08:47:50;23.60;83.60
14119;DHT22;7138;49.246;9.100;2023-06-05T08:50:17;23.70;85.20
14119;DHT22;7138;49.246;9.100;2023-06-05T08:52:43;24.40;83.40
14119;DHT22;7138;49.246;9.100;2023-06-05T08:55:12;23.80;82.90
14119;DHT22;7138;49.246;9.100;2023-06-05T08:57:38;24.30;84.90
14119;DHT22;7138;49.246;9.100;2023-06-05T09:00:07;24.90;87.80
14119;DHT22;7138;49.246;9.100;2023-06-05T09:02:37;24.20;84.20
14119;DHT22;7138;49.246;9.100;2023-06-05T09:05:07;24.50;83.90
14119;DHT22;7138;49.246;9.100;2023-06-05T09:07:34;24.80;84.20
14119;DHT22;7138;49.246;9.100;2023-06-05T09:09:59;25.20;88.60
14119;DHT22;7138;49.246;9.100;2023-06-05T09:12:25;25.00;87.00
14119;DHT22;7138;49.246;9.100;2023-06-05T09:14:51;25.40;87.80
14119;DHT22;7138;49.246;9.100;2023-06-05T09:17:17;25.00;83.80
14119;DHT22;7138;49.246;9.100;2023-06-05T09:19:46;25.20;85.20
14119;DHT22;7138;49.246;9.100;2023-06-05T09:22:14;25.10;86.00
14119;DHT22;7138;49.246;9.100;2023-06-05T09:24:57;25.40;90.10
14119;DHT22;7138;49.246;9.100;2023-06-05T09:27:23;25.90;90.30
14119;DHT22;7138;49.246;9.100;2023-06-05T09:30:02;25.90;87.70
14119;DHT22;7138;49.246;9.100;2023-06-05T09:32:30;25.40;86.90
14119;DHT22;7138;49.246;9.100;2023-06-05T09:34:56;25.90;88.10
14119;DHT22;7138;49.246;9.100;2023-06-05T09:37:34;25.70;84.40
14119;DHT22;7138;49.246;9.100;2023-06-05T09:40:01;25.70;89.40
14119;DHT22;7138;49.246;9.100;2023-06-05T09:42:32;26.20;90.60
14119;DHT22;7138;49.246;9.100;2023-06-05T09:44:59;25.30;83.20
14119;DHT22;7138;49.246;9.100;2023-06-05T09:47:26;24.90;84.30
14119;DHT22;7138;49.246;9.100;2023-06-05T09:49:52;25.00;85.20
14119;DHT22;7138;49.246;9.100;2023-06-05T09:52:19;25.30;86.40
14119;DHT22;7138;49.246;9.100;2023-06-05T09:54:46;26.00;86.20
14119;DHT22;7138;49.246;9.100;2023-06-05T09:57:14;25.80;85.60
14119;DHT22;7138;49.246;9.100;2023-06-05T09:59:45;25.50;84.50
14119;DHT22;7138;49.246;9.100;2023-06-05T10:02:15;25.50;82.30
14119;DHT22;7138;49.246;9.100;2023-06-05T10:04:45;25.70;83.00
14119;DHT22;7138;49.246;9.100;2023-06-05T10:07:13;25.60;82.90
14119;DHT22;7138;49.246;9.100;2023-06-05T10:09:40;25.80;78.80
14119;DHT22;7138;49.246;9.100;2023-06-05T10:12:09;26.00;85.60
14119;DHT22;7138;49.246;9.100;2023-06-05T10:14:36;26.10;77.10
14119;DHT22;7138;49.246;9.100;2023-06-05T10:17:07;25.60;76.70
14119;DHT22;7138;49.246;9.100;2023-06-05T10:19:33;25.70;77.30
14119;DHT22;7138;49.246;9.100;2023-06-05T10:21:59;25.90;75.90
14119;DHT22;7138;49.246;9.100;2023-06-05T10:24:28;25.90;72.00
14119;DHT22;7138;49.246;9.100;2023-06-05T10:27:16;26.00;75.70
14119;DHT22;7138;49.246;9.100;2023-06-05T10:30:31;26.30;76.80
14119;DHT22;7138;49.246;9.100;2023-06-05T10:33:29;25.80;75.70
14119;DHT22;7138;49.246;9.100;2023-06-05T10:36:10;25.70;74.60
14119;DHT22;7138;49.246;9.100;2023-06-05T10:38:46;25.30;75.00
14119;DHT22;7138;49.246;9.100;2023-06-05T10:41:12;25.70;74.60
14119;DHT22;7138;49.246;9.100;2023-06-05T10:43:47;26.10;83.20
14119;DHT22;7138;49.246;9.100;2023-06-05T10:46:31;26.50;81.10
14119;DHT22;7138;49.246;9.100;2023-06-05T10:49:11;25.70;70.60
14119;DHT22;7138;49.246;9.100;2023-06-05T10:51:40;25.70;70.80
14119;DHT22;7138;49.246;9.100;2023-06-05T10:54:09;26.10;72.80
14119;DHT22;7138;49.246;9.100;2023-06-05T10:59:37;26.10;75.10
14119;DHT22;7138;49.246;9.100;2023-06-05T11:02:23;26.00;72.70
14119;DHT22;7138;49.246;9.100;2023-06-05T11:05:07;26.30;78.60
14119;DHT22;7138;49.246;9.100;2023-06-05T11:07:34;26.40;73.10
14119;DHT22;7138;49.246;9.100;2023-06-05T11:10:24;26.20;72.40
14119;DHT22;7138;49.246;9.100;2023-06-05T11:13:00;26.10;73.60
14119;DHT22;7138;49.246;9.100;2023-06-05T11:15:39;26.60;82.30
14119;DHT22;7138;49.246;9.100;2023-06-05T11:18:33;26.10;70.30
14119;DHT22;7138;49.246;9.100;2023-06-05T11:21:01;25.70;70.20
14119;DHT22;7138;49.246;9.100;2023-06-05T11:23:27;26.10;71.30
14119;DHT22;7138;49.246;9.100;2023-06-05T11:25:55;26.30;71.70
14119;DHT22;7138;49.246;9.100;2023-06-05T11:28:39;26.00;66.50
14119;DHT22;7138;49.246;9.100;2023-06-05T11:31:07;26.30;70.10
14119;DHT22;7138;49.246;9.100;2023-06-05T11:33:33;26.50;70.80
14119;DHT22;7138;49.246;9.100;2023-06-05T11:36:01;26.40;66.60
14119;DHT22;7138;49.246;9.100;2023-06-05T11:38:29;26.20;65.50
14119;DHT22;7138;49.246;9.100;2023-06-05T11:40:55;25.80;62.90
14119;DHT22;7138;49.246;9.100;2023-06-05T11:43:21;25.90;63.90
14119;DHT22;7138;49.246;9.100;2023-06-05T11:45:52;26.20;65.00
14119;DHT22;7138;49.246;9.100;2023-06-05T11:48:21;26.10;65.90
14119;DHT22;7138;49.246;9.100;2023-06-05T11:50:56;26.40;71.10
14119;DHT22;7138;49.246;9.100;2023-06-05T11:53:24;26.20;65.00
14119;DHT22;7138;49.246;9.100;2023-06-05T11:55:51;26.50;68.00
14119;DHT22;7138;49.246;9.100;2023-06-05T11:58:20;26.70;66.60
14119;DHT22;7138;49.246;9.100;2023-06-05T12:00:47;26.40;64.70
14119;DHT22;7138;49.246;9.100;2023-06-05T12:03:17;26.00;65.50
14119;DHT22;7138;49.246;9.100;2023-06-05T12:05:45;26.30;66.40
14119;DHT22;7138;49.246;9.100;2023-06-05T12:08:22;26.30;65.80
14119;DHT22;7138;49.246;9.100;2023-06-05T12:10:50;26.90;67.00
14119;DHT22;7138;49.246;9.100;2023-06-05T12:13:16;27.00;67.40
14119;DHT22;7138;49.246;9.100;2023-06-05T12:15:42;26.50;64.80
14119;DHT22;7138;49.246;9.100;2023-06-05T12:18:08;26.80;69.00
14119;DHT22;7138;49.246;9.100;2023-06-05T12:20:38;26.70;67.70
14119;DHT22;7138;49.246;9.100;2023-06-05T12:23:18;26.60;65.50
14119;DHT22;7138;49.246;9.100;2023-06-05T12:25:44;26.60;63.50
14119;DHT22;7138;49.246;9.100;2023-06-05T12:28:18;26.70;71.10
14119;DHT22;7138;49.246;9.100;2023-06-05T12:30:45;26.80;65.90
14119;DHT22;7138;49.246;9.100;2023-06-05T12:33:11;26.80;70.10
14119;DHT22;7138;49.246;9.100;2023-06-05T12:35:37;26.60;62.30
14119;DHT22;7138;49.246;9.100;2023-06-05T12:38:03;27.00;64.00
14119;DHT22;7138;49.246;9.100;2023-06-05T12:40:30;27.20;69.40
14119;DHT22;7138;49.246;9.100;2023-06-05T12:42:56;27.00;69.20
14119;DHT22;7138;49.246;9.100;2023-06-05T12:45:22;27.10;71.80
14119;DHT22;7138;49.246;9.100;2023-06-05T12:47:48;27.20;64.20
14119;DHT22;7138;49.246;9.100;2023-06-05T12:50:14;27.30;70.60
14119;DHT22;7138;49.246;9.100;2023-06-05T12:52:41;27.10;69.80
14119;DHT22;7138;49.246;9.100;2023-06-05T12:55:08;26.60;60.80
14119;DHT22;7138;49.246;9.100;2023-06-05T12:57:37;26.70;62.90
14119;DHT22;7138;49.246;9.100;2023-06-05T13:00:04;27.00;62.50
14119;DHT22;7138;49.246;9.100;2023-06-05T13:02:38;26.80;62.20
14119;DHT22;7138;49.246;9.100;2023-06-05T13:05:06;26.80;64.70
14119;DHT22;7138;49.246;9.100;2023-06-05T13:07:32;27.20;69.40
14119;DHT22;7138;49.246;9.100;2023-06-05T13:09:58;26.70;59.90
14119;DHT22;7138;49.246;9.100;2023-06-05T13:12:24;26.40;62.50
14119;DHT22;7138;49.246;9.100;2023-06-05T13:14:51;26.40;59.50
14119;DHT22;7138;49.246;9.100;2023-06-05T13:17:17;26.20;60.30
14119;DHT22;7138;49.246;9.100;2023-06-05T13:19:42;26.30;65.60
14119;DHT22;7138;49.246;9.100;2023-06-05T13:22:08;26.50;69.60
14119;DHT22;7138;49.246;9.100;2023-06-05T13:24:34;26.80;63.90
14119;DHT22;7138;49.246;9.100;2023-06-05T13:27:00;26.80;64.80
14119;DHT22;7138;49.246;9.100;2023-06-05T13:29:26;27.20;64.70
14119;DHT22;7138;49.246;9.100;2023-06-05T13:31:53;27.00;67.90
14119;DHT22;7138;49.246;9.100;2023-06-05T13:34:19;26.90;61.00
14119;DHT22;7138;49.246;9.100;2023-06-05T13:36:45;26.60;60.70
14119;DHT22;7138;49.246;9.100;2023-06-05T13:39:11;26.60;67.30
14119;DHT22;7138;49.246;9.100;2023-06-05T13:41:37;26.40;61.30
14119;DHT22;7138;49.246;9.100;2023-06-05T13:44:03;26.60;61.60
14119;DHT22;7138;49.246;9.100;2023-06-05T13:46:29;26.50;66.00
14119;DHT22;7138;49.246;9.100;2023-06-05T13:48:56;26.70;66.60
14119;DHT22;7138;49.246;9.100;2023-06-05T13:51:25;26.70;66.30
14119;DHT22;7138;49.246;9.100;2023-06-05T13:53:51;27.20;64.70
14119;DHT22;7138;49.246;9.100;2023-06-05T13:56:19;27.20;69.70
14119;DHT22;7138;49.246;9.100;2023-06-05T13:58:45;26.90;65.60
14119;DHT22;7138;49.246;9.100;2023-06-05T14:01:11;26.90;62.60
14119;DHT22;7138;49.246;9.100;2023-06-05T14:03:37;26.80;65.30
14119;DHT22;7138;49.246;9.100;2023-06-05T14:06:05;26.60;63.60
14119;DHT22;7138;49.246;9.100;2023-06-05T14:08:31;26.70;61.20
14119;DHT22;7138;49.246;9.100;2023-06-05T14:10:58;26.70;63.40
14119;DHT22;7138;49.246;9.100;2023-06-05T14:13:24;26.80;63.40
14119;DHT22;7138;49.246;9.100;2023-06-05T14:15:53;27.10;64.00
14119;DHT22;7138;49.246;9.100;2023-06-05T14:18:19;26.60;60.30
14119;DHT22;7138;49.246;9.100;2023-06-05T14:20:44;26.40;61.70
14119;DHT22;7138;49.246;9.100;2023-06-05T14:23:12;26.60;60.50
14119;DHT22;7138;49.246;9.100;2023-06-05T14:25:38;26.60;59.30
14119;DHT22;7138;49.246;9.100;2023-06-05T14:28:03;26.60;61.50
14119;DHT22;7138;49.246;9.100;2023-06-05T14:30:31;26.70;60.30
14119;DHT22;7138;49.246;9.100;2023-06-05T14:32:57;26.80;61.10
14119;DHT22;7138;49.246;9.100;2023-06-05T14:35:23;26.30;60.70
14119;DHT22;7138;49.246;9.100;2023-06-05T14:37:49;26.30;61.70
14119;DHT22;7138;49.246;9.100;2023-06-05T14:40:16;26.50;62.50
14119;DHT22;7138;49.246;9.100;2023-06-05T14:42:43;26.40;60.00
14119;DHT22;7138;49.246;9.100;2023-06-05T14:45:09;26.40;63.70
14119;DHT22;7138;49.246;9.100;2023-06-05T14:47:36;26.60;62.10
14119;DHT22;7138;49.246;9.100;2023-06-05T14:50:02;26.60;64.20
14119;DHT22;7138;49.246;9.100;2023-06-05T14:52:28;26.40;62.90
14119;DHT22;7138;49.246;9.100;2023-06-05T14:54:54;26.10;65.20
14119;DHT22;7138;49.246;9.100;2023-06-05T14:57:21;26.50;69.30
14119;DHT22;7138;49.246;9.100;2023-06-05T14:59:47;26.50;62.90
14119;DHT22;7138;49.246;9.100;2023-06-05T15:02:13;26.40;65.00
14119;DHT22;7138;49.246;9.100;2023-06-05T15:04:38;26.30;62.40
14119;DHT22;7138;49.246;9.100;2023-06-05T15:07:05;26.50;62.50
14119;DHT22;7138;49.246;9.100;2023-06-05T15:09:31;26.40;62.90
14119;DHT22;7138;49.246;9.100;2023-06-05T15:11:57;26.30;65.80
14119;DHT22;7138;49.246;9.100;2023-06-05T15:14:24;26.30;68.20
14119;DHT22;7138;49.246;9.100;2023-06-05T15:16:50;26.30;63.50
14119;DHT22;7138;49.246;9.100;2023-06-05T15:19:16;26.50;66.30
14119;DHT22;7138;49.246;9.100;2023-06-05T15:21:42;26.30;59.80
14119;DHT22;7138;49.246;9.100;2023-06-05T15:24:08;26.40;67.90
14119;DHT22;7138;49.246;9.100;2023-06-05T15:26:34;26.20;60.10
14119;DHT22;7138;49.246;9.100;2023-06-05T15:29:00;26.20;59.30
14119;DHT22;7138;49.246;9.100;2023-06-05T15:31:27;26.30;60.40
14119;DHT22;7138;49.246;9.100;2023-06-05T15:33:53;26.20;61.80
14119;DHT22;7138;49.246;9.100;2023-06-05T15:36:19;26.20;62.60
14119;DHT22;7138;49.246;9.100;2023-06-05T15:38:45;26.30;69.90
14119;DHT22;7138;49.246;9.100;2023-06-05T15:41:11;26.30;64.90
14119;DHT22;7138;49.246;9.100;2023-06-05T15:43:37;26.30;64.50
14119;DHT22;7138;49.246;9.100;2023-06-05T15:46:04;26.00;60.80
14119;DHT22;7138;49.246;9.100;2023-06-05T15:48:31;26.00;68.40
14119;DHT22;7138;49.246;9.100;2023-06-05T15:50:58;25.80;63.20